sensor_id;sensor_type;location;lat;lon;timestamp;P1;durP1;ratioP1;P2;durP2;ratioP2
44764;SDS011;30484;52.382;5.260;2023-07-13T00:01:39;30.83;;;6.18;;
44764;SDS011;30484;52.382;5.260;2023-07-13T00:04:10;34.38;;;6.18;;
44764;SDS011;30484;52.382;5.260;2023-07-13T00:06:41;29.70;;;6.22;;
44764;SDS011;30484;52.382;5.260;2023-07-13T00:09:11;39.10;;;6.90;;
44764;SDS011;30484;52.382;5.260;2023-07-13T00:11:41;39.50;;;6.72;;
44764;SDS011;30484;52.382;5.260;2023-07-13T00:14:13;31.50;;;6.25;;
44764;SDS011;30484;52.382;5.260;2023-07-13T00:16:43;46.50;;;6.82;;
44764;SDS011;30484;52.382;5.260;2023-07-13T00:19:12;44.75;;;6.50;;
44764;SDS011;30484;52.382;5.260;2023-07-13T00:21:41;26.95;;;6.68;;
44764;SDS011;30484;52.382;5.260;2023-07-13T00:24:11;36.17;;;6.55;;
44764;SDS011;30484;52.382;5.260;2023-07-13T00:26:50;37.83;;;6.70;;
44764;SDS011;30484;52.382;5.260;2023-07-13T00:29:21;32.58;;;6.13;;
44764;SDS011;30484;52.382;5.260;2023-07-13T00:31:50;28.45;;;5.72;;
44764;SDS011;30484;52.382;5.260;2023-07-13T00:34:19;43.25;;;6.72;;
44764;SDS011;30484;52.382;5.260;2023-07-13T00:36:48;35.70;;;6.57;;
44764;SDS011;30484;52.382;5.260;2023-07-13T00:39:17;43.30;;;6.60;;
44764;SDS011;30484;52.382;5.260;2023-07-13T00:41:47;38.28;;;6.60;;
44764;SDS011;30484;52.382;5.260;2023-07-13T00:44:17;28.70;;;6.05;;
44764;SDS011;30484;52.382;5.260;2023-07-13T00:46:50;43.00;;;6.38;;
44764;SDS011;30484;52.382;5.260;2023-07-13T00:49:20;43.35;;;6.97;;
44764;SDS011;30484;52.382;5.260;2023-07-13T00:51:53;29.48;;;6.18;;
44764;SDS011;30484;52.382;5.260;2023-07-13T00:54:26;41.03;;;6.15;;
44764;SDS011;30484;52.382;5.260;2023-07-13T00:57:02;37.97;;;6.60;;
44764;SDS011;30484;52.382;5.260;2023-07-13T00:59:35;36.35;;;6.22;;
44764;SDS011;30484;52.382;5.260;2023-07-13T01:05:08;44.85;;;7.55;;
44764;SDS011;30484;52.382;5.260;2023-07-13T01:07:38;43.92;;;8.13;;
44764;SDS011;30484;52.382;5.260;2023-07-13T01:10:07;32.20;;;8.27;;
44764;SDS011;30484;52.382;5.260;2023-07-13T01:12:36;39.33;;;9.02;;
44764;SDS011;30484;52.382;5.260;2023-07-13T01:18:05;40.85;;;8.63;;
44764;SDS011;30484;52.382;5.260;2023-07-13T01:20:39;40.47;;;8.13;;
44764;SDS011;30484;52.382;5.260;2023-07-13T01:23:10;41.08;;;8.18;;
44764;SDS011;30484;52.382;5.260;2023-07-13T01:25:40;39.70;;;9.48;;
44764;SDS011;30484;52.382;5.260;2023-07-13T01:28:09;48.75;;;7.90;;
44764;SDS011;30484;52.382;5.260;2023-07-13T01:30:38;41.00;;;8.20;;
44764;SDS011;30484;52.382;5.260;2023-07-13T01:33:08;41.92;;;7.80;;
44764;SDS011;30484;52.382;5.260;2023-07-13T01:35:37;37.95;;;7.63;;
44764;SDS011;30484;52.382;5.260;2023-07-13T01:38:06;39.42;;;7.18;;
44764;SDS011;30484;52.382;5.260;2023-07-13T01:40:37;45.00;;;7.85;;
44764;SDS011;30484;52.382;5.260;2023-07-13T01:43:07;44.85;;;7.18;;
44764;SDS011;30484;52.382;5.260;2023-07-13T01:45:37;38.28;;;7.00;;
44764;SDS011;30484;52.382;5.260;2023-07-13T01:48:05;33.67;;;6.97;;
44764;SDS011;30484;52.382;5.260;2023-07-13T01:50:34;40.17;;;7.25;;
44764;SDS011;30484;52.382;5.260;2023-07-13T01:53:04;38.28;;;7.30;;
44764;SDS011;30484;52.382;5.260;2023-07-13T01:55:34;43.85;;;6.68;;
44764;SDS011;30484;52.382;5.260;2023-07-13T01:58:05;39.10;;;6.95;;
44764;SDS011;30484;52.382;5.260;2023-07-13T02:00:34;33.03;;;6.55;;
44764;SDS011;30484;52.382;5.260;2023-07-13T02:03:03;37.00;;;6.57;;
44764;SDS011;30484;52.382;5.260;2023-07-13T02:05:32;30.02;;;6.53;;
44764;SDS011;30484;52.382;5.260;2023-07-13T02:08:00;38.35;;;6.55;;
44764;SDS011;30484;52.382;5.260;2023-07-13T02:10:28;39.65;;;6.35;;
44764;SDS011;30484;52.382;5.260;2023-07-13T02:12:58;39.50;;;6.75;;
44764;SDS011;30484;52.382;5.260;2023-07-13T02:15:27;30.63;;;6.35;;
44764;SDS011;30484;52.382;5.260;2023-07-13T02:17:57;40.83;;;6.57;;
44764;SDS011;30484;52.382;5.260;2023-07-13T02:20:26;31.85;;;7.13;;
44764;SDS011;30484;52.382;5.260;2023-07-13T02:22:55;39.42;;;6.88;;
44764;SDS011;30484;52.382;5.260;2023-07-13T02:25:24;30.98;;;6.82;;
44764;SDS011;30484;52.382;5.260;2023-07-13T02:27:53;39.30;;;6.35;;
44764;SDS011;30484;52.382;5.260;2023-07-13T02:30:23;33.50;;;6.00;;
44764;SDS011;30484;52.382;5.260;2023-07-13T02:32:52;42.22;;;7.13;;
44764;SDS011;30484;52.382;5.260;2023-07-13T02:35:21;39.70;;;6.68;;
44764;SDS011;30484;52.382;5.260;2023-07-13T02:37:50;36.55;;;6.38;;
44764;SDS011;30484;52.382;5.260;2023-07-13T02:40:18;33.63;;;6.38;;
44764;SDS011;30484;52.382;5.260;2023-07-13T02:42:47;37.53;;;6.95;;
44764;SDS011;30484;52.382;5.260;2023-07-13T02:45:16;31.08;;;6.25;;
44764;SDS011;30484;52.382;5.260;2023-07-13T02:47:46;36.25;;;5.75;;
44764;SDS011;30484;52.382;5.260;2023-07-13T02:50:15;34.25;;;5.85;;
44764;SDS011;30484;52.382;5.260;2023-07-13T02:52:43;30.83;;;5.97;;
44764;SDS011;30484;52.382;5.260;2023-07-13T02:55:12;35.42;;;6.22;;
44764;SDS011;30484;52.382;5.260;2023-07-13T02:57:40;34.13;;;5.30;;
44764;SDS011;30484;52.382;5.260;2023-07-13T03:00:09;25.00;;;5.22;;
44764;SDS011;30484;52.382;5.260;2023-07-13T03:02:39;22.80;;;4.30;;
44764;SDS011;30484;52.382;5.260;2023-07-13T03:05:09;25.52;;;4.78;;
44764;SDS011;30484;52.382;5.260;2023-07-13T03:07:39;30.55;;;4.68;;
44764;SDS011;30484;52.382;5.260;2023-07-13T03:10:08;20.42;;;4.63;;
44764;SDS011;30484;52.382;5.260;2023-07-13T03:12:37;19.48;;;3.72;;
44764;SDS011;30484;52.382;5.260;2023-07-13T03:15:06;24.40;;;4.43;;
44764;SDS011;30484;52.382;5.260;2023-07-13T03:17:35;18.85;;;3.47;;
44764;SDS011;30484;52.382;5.260;2023-07-13T03:20:05;17.92;;;3.33;;
44764;SDS011;30484;52.382;5.260;2023-07-13T03:22:37;18.33;;;3.05;;
44764;SDS011;30484;52.382;5.260;2023-07-13T03:25:06;13.45;;;3.30;;
44764;SDS011;30484;52.382;5.260;2023-07-13T03:27:36;18.15;;;3.20;;
44764;SDS011;30484;52.382;5.260;2023-07-13T03:30:05;18.27;;;3.20;;
44764;SDS011;30484;52.382;5.260;2023-07-13T03:32:36;15.02;;;2.97;;
44764;SDS011;30484;52.382;5.260;2023-07-13T03:35:05;15.20;;;3.40;;
44764;SDS011;30484;52.382;5.260;2023-07-13T03:37:37;15.07;;;2.78;;
44764;SDS011;30484;52.382;5.260;2023-07-13T03:40:10;13.32;;;3.17;;
44764;SDS011;30484;52.382;5.260;2023-07-13T03:42:40;19.20;;;3.53;;
44764;SDS011;30484;52.382;5.260;2023-07-13T03:45:09;19.55;;;3.92;;
44764;SDS011;30484;52.382;5.260;2023-07-13T03:47:37;23.27;;;4.55;;
44764;SDS011;30484;52.382;5.260;2023-07-13T03:50:07;16.17;;;4.10;;
44764;SDS011;30484;52.382;5.260;2023-07-13T03:52:37;16.52;;;4.45;;
44764;SDS011;30484;52.382;5.260;2023-07-13T03:55:06;21.42;;;4.40;;
44764;SDS011;30484;52.382;5.260;2023-07-13T03:57:35;18.63;;;4.47;;
44764;SDS011;30484;52.382;5.260;2023-07-13T04:00:06;20.40;;;4.32;;
44764;SDS011;30484;52.382;5.260;2023-07-13T04:02:37;23.33;;;4.13;;
44764;SDS011;30484;52.382;5.260;2023-07-13T04:05:05;20.08;;;4.20;;
44764;SDS011;30484;52.382;5.260;2023-07-13T04:07:34;22.75;;;4.30;;
44764;SDS011;30484;52.382;5.260;2023-07-13T04:10:05;29.13;;;5.05;;
44764;SDS011;30484;52.382;5.260;2023-07-13T04:12:34;19.80;;;4.07;;
44764;SDS011;30484;52.382;5.260;2023-07-13T04:15:03;19.67;;;3.78;;
44764;SDS011;30484;52.382;5.260;2023-07-13T04:17:33;19.75;;;3.58;;
44764;SDS011;30484;52.382;5.260;2023-07-13T04:20:02;17.40;;;3.60;;
44764;SDS011;30484;52.382;5.260;2023-07-13T04:22:31;10.98;;;3.35;;
44764;SDS011;30484;52.382;5.260;2023-07-13T04:25:00;22.15;;;3.55;;
44764;SDS011;30484;52.382;5.260;2023-07-13T04:27:30;18.75;;;3.35;;
44764;SDS011;30484;52.382;5.260;2023-07-13T04:29:58;14.18;;;3.42;;
44764;SDS011;30484;52.382;5.260;2023-07-13T04:32:27;21.02;;;3.63;;
44764;SDS011;30484;52.382;5.260;2023-07-13T04:34:56;13.68;;;3.00;;
44764;SDS011;30484;52.382;5.260;2023-07-13T04:37:28;21.92;;;3.25;;
44764;SDS011;30484;52.382;5.260;2023-07-13T04:39:56;13.52;;;2.83;;
44764;SDS011;30484;52.382;5.260;2023-07-13T04:42:25;16.10;;;2.83;;
44764;SDS011;30484;52.382;5.260;2023-07-13T04:44:56;11.73;;;3.20;;
44764;SDS011;30484;52.382;5.260;2023-07-13T04:47:25;20.05;;;3.55;;
44764;SDS011;30484;52.382;5.260;2023-07-13T04:49:54;20.42;;;3.67;;
44764;SDS011;30484;52.382;5.260;2023-07-13T04:52:23;14.50;;;3.80;;
44764;SDS011;30484;52.382;5.260;2023-07-13T04:54:52;15.15;;;3.47;;
44764;SDS011;30484;52.382;5.260;2023-07-13T04:57:21;20.23;;;3.05;;
44764;SDS011;30484;52.382;5.260;2023-07-13T04:59:52;14.98;;;3.03;;
44764;SDS011;30484;52.382;5.260;2023-07-13T05:02:24;15.95;;;3.60;;
44764;SDS011;30484;52.382;5.260;2023-07-13T05:04:54;19.27;;;3.72;;
44764;SDS011;30484;52.382;5.260;2023-07-13T05:07:23;19.83;;;3.70;;
44764;SDS011;30484;52.382;5.260;2023-07-13T05:09:52;21.95;;;3.67;;
44764;SDS011;30484;52.382;5.260;2023-07-13T05:12:21;17.90;;;3.72;;
44764;SDS011;30484;52.382;5.260;2023-07-13T05:14:49;24.25;;;3.83;;
44764;SDS011;30484;52.382;5.260;2023-07-13T05:17:18;21.65;;;4.32;;
44764;SDS011;30484;52.382;5.260;2023-07-13T05:19:51;22.33;;;4.75;;
44764;SDS011;30484;52.382;5.260;2023-07-13T05:22:20;24.15;;;4.85;;
44764;SDS011;30484;52.382;5.260;2023-07-13T05:24:48;24.42;;;3.70;;
44764;SDS011;30484;52.382;5.260;2023-07-13T05:27:17;20.60;;;4.60;;
44764;SDS011;30484;52.382;5.260;2023-07-13T05:29:47;19.38;;;3.97;;
44764;SDS011;30484;52.382;5.260;2023-07-13T05:32:17;22.48;;;4.18;;
44764;SDS011;30484;52.382;5.260;2023-07-13T05:34:46;20.92;;;4.05;;
44764;SDS011;30484;52.382;5.260;2023-07-13T05:37:16;27.08;;;4.65;;
44764;SDS011;30484;52.382;5.260;2023-07-13T05:39:45;25.95;;;4.85;;
44764;SDS011;30484;52.382;5.260;2023-07-13T05:42:14;21.35;;;4.50;;
44764;SDS011;30484;52.382;5.260;2023-07-13T05:44:43;17.35;;;4.20;;
44764;SDS011;30484;52.382;5.260;2023-07-13T05:47:12;24.35;;;4.97;;
44764;SDS011;30484;52.382;5.260;2023-07-13T05:49:41;22.38;;;3.90;;
44764;SDS011;30484;52.382;5.260;2023-07-13T05:52:10;26.55;;;4.20;;
44764;SDS011;30484;52.382;5.260;2023-07-13T05:54:40;30.23;;;4.78;;
44764;SDS011;30484;52.382;5.260;2023-07-13T05:57:11;16.80;;;4.03;;
44764;SDS011;30484;52.382;5.260;2023-07-13T05:59:40;21.80;;;4.88;;
44764;SDS011;30484;52.382;5.260;2023-07-13T06:02:09;20.40;;;4.95;;
44764;SDS011;30484;52.382;5.260;2023-07-13T06:04:38;28.63;;;4.72;;
44764;SDS011;30484;52.382;5.260;2023-07-13T06:07:07;19.58;;;3.80;;
44764;SDS011;30484;52.382;5.260;2023-07-13T06:09:36;24.50;;;4.20;;
44764;SDS011;30484;52.382;5.260;2023-07-13T06:12:07;21.40;;;3.92;;
44764;SDS011;30484;52.382;5.260;2023-07-13T06:14:36;23.10;;;4.07;;
44764;SDS011;30484;52.382;5.260;2023-07-13T06:17:07;26.98;;;4.25;;
44764;SDS011;30484;52.382;5.260;2023-07-13T06:19:37;20.38;;;4.45;;
44764;SDS011;30484;52.382;5.260;2023-07-13T06:22:07;22.73;;;4.40;;
44764;SDS011;30484;52.382;5.260;2023-07-13T06:24:36;18.15;;;4.50;;
44764;SDS011;30484;52.382;5.260;2023-07-13T06:27:11;19.65;;;3.60;;
44764;SDS011;30484;52.382;5.260;2023-07-13T06:29:43;22.20;;;4.35;;
44764;SDS011;30484;52.382;5.260;2023-07-13T06:32:14;17.73;;;4.20;;
44764;SDS011;30484;52.382;5.260;2023-07-13T06:34:44;18.50;;;3.70;;
44764;SDS011;30484;52.382;5.260;2023-07-13T06:37:14;20.20;;;4.15;;
44764;SDS011;30484;52.382;5.260;2023-07-13T06:39:43;18.25;;;3.70;;
44764;SDS011;30484;52.382;5.260;2023-07-13T06:42:15;19.30;;;4.00;;
44764;SDS011;30484;52.382;5.260;2023-07-13T06:44:45;16.77;;;4.10;;
44764;SDS011;30484;52.382;5.260;2023-07-13T06:47:17;25.02;;;4.70;;
44764;SDS011;30484;52.382;5.260;2023-07-13T06:49:46;24.52;;;4.70;;
44764;SDS011;30484;52.382;5.260;2023-07-13T06:52:15;21.75;;;4.18;;
44764;SDS011;30484;52.382;5.260;2023-07-13T06:54:43;15.82;;;3.25;;
44764;SDS011;30484;52.382;5.260;2023-07-13T06:57:12;13.23;;;3.15;;
44764;SDS011;30484;52.382;5.260;2023-07-13T06:59:42;17.75;;;3.55;;
44764;SDS011;30484;52.382;5.260;2023-07-13T07:02:10;15.70;;;3.45;;
44764;SDS011;30484;52.382;5.260;2023-07-13T07:04:39;16.45;;;3.33;;
44764;SDS011;30484;52.382;5.260;2023-07-13T07:07:07;15.63;;;4.32;;
44764;SDS011;30484;52.382;5.260;2023-07-13T07:09:36;16.23;;;4.22;;
44764;SDS011;30484;52.382;5.260;2023-07-13T07:12:05;22.60;;;4.10;;
44764;SDS011;30484;52.382;5.260;2023-07-13T07:14:35;16.48;;;3.50;;
44764;SDS011;30484;52.382;5.260;2023-07-13T07:17:04;20.08;;;4.05;;
44764;SDS011;30484;52.382;5.260;2023-07-13T07:19:32;14.95;;;3.95;;
44764;SDS011;30484;52.382;5.260;2023-07-13T07:22:03;19.13;;;4.47;;
44764;SDS011;30484;52.382;5.260;2023-07-13T07:24:32;16.70;;;3.85;;
44764;SDS011;30484;52.382;5.260;2023-07-13T07:27:01;20.65;;;4.50;;
44764;SDS011;30484;52.382;5.260;2023-07-13T07:29:32;11.13;;;2.85;;
44764;SDS011;30484;52.382;5.260;2023-07-13T07:32:05;8.85;;;2.85;;
44764;SDS011;30484;52.382;5.260;2023-07-13T07:34:55;13.23;;;2.60;;
44764;SDS011;30484;52.382;5.260;2023-07-13T07:37:24;13.40;;;3.50;;
44764;SDS011;30484;52.382;5.260;2023-07-13T07:39:55;8.02;;;2.90;;
44764;SDS011;30484;52.382;5.260;2023-07-13T07:42:28;12.52;;;2.90;;
44764;SDS011;30484;52.382;5.260;2023-07-13T07:44:57;10.82;;;3.00;;
44764;SDS011;30484;52.382;5.260;2023-07-13T07:47:28;11.43;;;3.38;;
44764;SDS011;30484;52.382;5.260;2023-07-13T07:49:57;10.32;;;2.92;;
44764;SDS011;30484;52.382;5.260;2023-07-13T07:52:26;12.10;;;2.50;;
44764;SDS011;30484;52.382;5.260;2023-07-13T07:54:55;12.40;;;2.88;;
44764;SDS011;30484;52.382;5.260;2023-07-13T07:57:43;9.40;;;2.72;;
44764;SDS011;30484;52.382;5.260;2023-07-13T08:00:15;7.88;;;2.70;;
44764;SDS011;30484;52.382;5.260;2023-07-13T08:02:49;12.95;;;2.58;;
44764;SDS011;30484;52.382;5.260;2023-07-13T08:05:21;8.32;;;2.90;;
44764;SDS011;30484;52.382;5.260;2023-07-13T08:08:08;16.02;;;3.33;;
44764;SDS011;30484;52.382;5.260;2023-07-13T08:10:36;10.27;;;2.80;;
44764;SDS011;30484;52.382;5.260;2023-07-13T08:13:05;11.70;;;2.88;;
44764;SDS011;30484;52.382;5.260;2023-07-13T08:15:37;13.32;;;3.00;;
44764;SDS011;30484;52.382;5.260;2023-07-13T08:18:08;10.63;;;2.75;;
44764;SDS011;30484;52.382;5.260;2023-07-13T08:20:36;7.93;;;2.67;;
44764;SDS011;30484;52.382;5.260;2023-07-13T08:23:06;11.10;;;2.90;;
44764;SDS011;30484;52.382;5.260;2023-07-13T08:25:36;9.88;;;2.65;;
44764;SDS011;30484;52.382;5.260;2023-07-13T08:28:05;8.82;;;2.47;;
44764;SDS011;30484;52.382;5.260;2023-07-13T08:30:34;7.20;;;2.72;;
44764;SDS011;30484;52.382;5.260;2023-07-13T08:33:02;10.27;;;2.90;;
44764;SDS011;30484;52.382;5.260;2023-07-13T08:35:33;11.55;;;2.58;;
44764;SDS011;30484;52.382;5.260;2023-07-13T08:38:02;9.88;;;2.78;;
44764;SDS011;30484;52.382;5.260;2023-07-13T08:40:30;10.45;;;3.00;;
44764;SDS011;30484;52.382;5.260;2023-07-13T08:42:59;6.63;;;2.22;;
44764;SDS011;30484;52.382;5.260;2023-07-13T08:45:29;13.05;;;2.90;;
44764;SDS011;30484;52.382;5.260;2023-07-13T08:48:09;9.15;;;2.50;;
44764;SDS011;30484;52.382;5.260;2023-07-13T08:50:49;9.23;;;2.83;;
44764;SDS011;30484;52.382;5.260;2023-07-13T08:53:29;10.50;;;2.70;;
44764;SDS011;30484;52.382;5.260;2023-07-13T08:56:04;10.85;;;2.38;;
44764;SDS011;30484;52.382;5.260;2023-07-13T08:58:41;8.15;;;2.45;;
44764;SDS011;30484;52.382;5.260;2023-07-13T09:01:11;11.60;;;2.30;;
44764;SDS011;30484;52.382;5.260;2023-07-13T09:03:50;7.88;;;2.72;;
44764;SDS011;30484;52.382;5.260;2023-07-13T09:06:30;9.45;;;2.50;;
44764;SDS011;30484;52.382;5.260;2023-07-13T09:09:09;9.00;;;1.90;;
44764;SDS011;30484;52.382;5.260;2023-07-13T09:11:49;8.02;;;2.33;;
44764;SDS011;30484;52.382;5.260;2023-07-13T09:14:32;10.70;;;2.50;;
44764;SDS011;30484;52.382;5.260;2023-07-13T09:17:12;6.30;;;2.20;;
44764;SDS011;30484;52.382;5.260;2023-07-13T09:19:47;9.57;;;2.63;;
44764;SDS011;30484;52.382;5.260;2023-07-13T09:22:23;8.23;;;2.33;;
44764;SDS011;30484;52.382;5.260;2023-07-13T09:24:57;9.27;;;2.22;;
44764;SDS011;30484;52.382;5.260;2023-07-13T09:27:33;7.97;;;2.10;;
44764;SDS011;30484;52.382;5.260;2023-07-13T09:30:17;11.60;;;2.28;;
44764;SDS011;30484;52.382;5.260;2023-07-13T09:32:57;10.60;;;2.20;;
44764;SDS011;30484;52.382;5.260;2023-07-13T09:35:31;13.02;;;2.17;;
44764;SDS011;30484;52.382;5.260;2023-07-13T09:38:09;7.57;;;2.45;;
44764;SDS011;30484;52.382;5.260;2023-07-13T09:40:44;7.75;;;2.20;;
44764;SDS011;30484;52.382;5.260;2023-07-13T09:43:25;6.28;;;2.10;;
44764;SDS011;30484;52.382;5.260;2023-07-13T09:45:55;7.03;;;2.10;;
44764;SDS011;30484;52.382;5.260;2023-07-13T09:48:24;10.40;;;2.50;;
44764;SDS011;30484;52.382;5.260;2023-07-13T09:50:54;12.07;;;2.60;;
44764;SDS011;30484;52.382;5.260;2023-07-13T09:53:25;8.18;;;2.50;;
44764;SDS011;30484;52.382;5.260;2023-07-13T09:55:59;11.10;;;2.60;;
44764;SDS011;30484;52.382;5.260;2023-07-13T09:58:29;9.35;;;2.67;;
44764;SDS011;30484;52.382;5.260;2023-07-13T10:01:00;9.52;;;2.08;;
44764;SDS011;30484;52.382;5.260;2023-07-13T10:03:35;8.93;;;2.00;;
44764;SDS011;30484;52.382;5.260;2023-07-13T10:06:10;6.32;;;2.30;;
44764;SDS011;30484;52.382;5.260;2023-07-13T10:08:43;7.07;;;2.17;;
44764;SDS011;30484;52.382;5.260;2023-07-13T10:11:16;9.40;;;2.38;;
44764;SDS011;30484;52.382;5.260;2023-07-13T10:13:50;10.52;;;2.65;;
44764;SDS011;30484;52.382;5.260;2023-07-13T10:16:22;9.48;;;2.50;;
44764;SDS011;30484;52.382;5.260;2023-07-13T10:18:55;8.18;;;2.20;;
44764;SDS011;30484;52.382;5.260;2023-07-13T10:21:28;6.20;;;1.77;;
44764;SDS011;30484;52.382;5.260;2023-07-13T10:24:06;7.28;;;3.10;;
44764;SDS011;30484;52.382;5.260;2023-07-13T10:26:45;9.27;;;2.30;;
44764;SDS011;30484;52.382;5.260;2023-07-13T10:29:22;10.65;;;2.50;;
44764;SDS011;30484;52.382;5.260;2023-07-13T10:31:55;5.25;;;2.20;;
44764;SDS011;30484;52.382;5.260;2023-07-13T10:34:24;8.43;;;2.20;;
44764;SDS011;30484;52.382;5.260;2023-07-13T10:36:53;8.98;;;3.15;;
44764;SDS011;30484;52.382;5.260;2023-07-13T10:39:24;6.80;;;2.00;;
44764;SDS011;30484;52.382;5.260;2023-07-13T10:41:59;7.05;;;2.65;;
44764;SDS011;30484;52.382;5.260;2023-07-13T10:44:33;8.20;;;2.35;;
44764;SDS011;30484;52.382;5.260;2023-07-13T10:47:03;14.57;;;2.70;;
44764;SDS011;30484;52.382;5.260;2023-07-13T10:49:35;6.70;;;2.40;;
44764;SDS011;30484;52.382;5.260;2023-07-13T10:52:05;8.32;;;2.40;;
44764;SDS011;30484;52.382;5.260;2023-07-13T10:55:11;7.40;;;2.42;;
44764;SDS011;30484;52.382;5.260;2023-07-13T10:58:14;7.43;;;2.05;;
44764;SDS011;30484;52.382;5.260;2023-07-13T11:00:49;11.55;;;2.38;;
44764;SDS011;30484;52.382;5.260;2023-07-13T11:03:20;11.18;;;2.28;;
44764;SDS011;30484;52.382;5.260;2023-07-13T11:06:03;9.43;;;2.10;;
44764;SDS011;30484;52.382;5.260;2023-07-13T11:08:51;6.18;;;2.10;;
44764;SDS011;30484;52.382;5.260;2023-07-13T11:11:38;8.68;;;1.98;;
44764;SDS011;30484;52.382;5.260;2023-07-13T11:16:56;9.45;;;2.50;;
44764;SDS011;30484;52.382;5.260;2023-07-13T11:19:27;6.68;;;2.10;;
44764;SDS011;30484;52.382;5.260;2023-07-13T11:22:12;8.45;;;2.25;;
44764;SDS011;30484;52.382;5.260;2023-07-13T11:24:52;6.32;;;1.98;;
44764;SDS011;30484;52.382;5.260;2023-07-13T11:27:35;5.75;;;2.08;;
44764;SDS011;30484;52.382;5.260;2023-07-13T11:30:23;5.57;;;2.17;;
44764;SDS011;30484;52.382;5.260;2023-07-13T11:33:03;9.23;;;2.40;;
44764;SDS011;30484;52.382;5.260;2023-07-13T11:35:42;10.32;;;2.15;;
44764;SDS011;30484;52.382;5.260;2023-07-13T11:38:19;10.63;;;2.30;;
44764;SDS011;30484;52.382;5.260;2023-07-13T11:40:51;4.35;;;1.80;;
44764;SDS011;30484;52.382;5.260;2023-07-13T11:43:24;5.90;;;2.05;;
44764;SDS011;30484;52.382;5.260;2023-07-13T11:45:52;7.57;;;2.20;;
44764;SDS011;30484;52.382;5.260;2023-07-13T11:48:22;6.38;;;2.15;;
44764;SDS011;30484;52.382;5.260;2023-07-13T11:50:58;10.32;;;2.22;;
44764;SDS011;30484;52.382;5.260;2023-07-13T11:53:34;9.18;;;1.88;;
44764;SDS011;30484;52.382;5.260;2023-07-13T11:56:08;10.60;;;2.83;;
44764;SDS011;30484;52.382;5.260;2023-07-13T11:58:38;10.05;;;2.30;;
44764;SDS011;30484;52.382;5.260;2023-07-13T12:01:10;6.45;;;2.13;;
44764;SDS011;30484;52.382;5.260;2023-07-13T12:03:48;8.35;;;2.40;;
44764;SDS011;30484;52.382;5.260;2023-07-13T12:06:25;8.45;;;1.77;;
44764;SDS011;30484;52.382;5.260;2023-07-13T12:08:57;6.15;;;1.90;;
44764;SDS011;30484;52.382;5.260;2023-07-13T12:11:27;7.32;;;1.77;;
44764;SDS011;30484;52.382;5.260;2023-07-13T12:13:57;8.23;;;2.17;;
44764;SDS011;30484;52.382;5.260;2023-07-13T12:16:28;5.03;;;1.70;;
44764;SDS011;30484;52.382;5.260;2023-07-13T12:19:00;8.82;;;2.08;;
44764;SDS011;30484;52.382;5.260;2023-07-13T12:21:31;6.82;;;2.25;;
44764;SDS011;30484;52.382;5.260;2023-07-13T12:24:02;5.95;;;2.38;;
44764;SDS011;30484;52.382;5.260;2023-07-13T12:26:32;6.43;;;1.75;;
44764;SDS011;30484;52.382;5.260;2023-07-13T12:29:04;6.50;;;2.13;;
44764;SDS011;30484;52.382;5.260;2023-07-13T12:31:35;4.05;;;1.70;;
44764;SDS011;30484;52.382;5.260;2023-07-13T12:34:09;7.80;;;2.30;;
44764;SDS011;30484;52.382;5.260;2023-07-13T12:36:45;6.00;;;1.77;;
44764;SDS011;30484;52.382;5.260;2023-07-13T12:39:17;5.60;;;2.08;;
44764;SDS011;30484;52.382;5.260;2023-07-13T12:41:49;6.15;;;1.98;;
44764;SDS011;30484;52.382;5.260;2023-07-13T12:44:24;5.88;;;2.00;;
44764;SDS011;30484;52.382;5.260;2023-07-13T12:46:57;8.50;;;1.95;;
44764;SDS011;30484;52.382;5.260;2023-07-13T12:49:32;5.50;;;1.85;;
44764;SDS011;30484;52.382;5.260;2023-07-13T12:52:03;7.00;;;2.05;;
44764;SDS011;30484;52.382;5.260;2023-07-13T12:54:52;6.13;;;2.13;;
44764;SDS011;30484;52.382;5.260;2023-07-13T12:57:31;7.53;;;2.10;;
44764;SDS011;30484;52.382;5.260;2023-07-13T13:00:11;5.43;;;2.13;;
44764;SDS011;30484;52.382;5.260;2023-07-13T13:02:52;7.15;;;2.10;;
44764;SDS011;30484;52.382;5.260;2023-07-13T13:05:43;7.13;;;2.70;;
44764;SDS011;30484;52.382;5.260;2023-07-13T13:08:12;9.23;;;2.40;;
44764;SDS011;30484;52.382;5.260;2023-07-13T13:10:45;9.23;;;2.40;;
44764;SDS011;30484;52.382;5.260;2023-07-13T13:13:13;7.18;;;2.03;;
44764;SDS011;30484;52.382;5.260;2023-07-13T13:15:43;7.13;;;1.73;;
44764;SDS011;30484;52.382;5.260;2023-07-13T13:18:14;8.32;;;2.47;;
44764;SDS011;30484;52.382;5.260;2023-07-13T13:20:45;6.45;;;2.00;;
44764;SDS011;30484;52.382;5.260;2023-07-13T13:23:15;6.85;;;1.92;;
44764;SDS011;30484;52.382;5.260;2023-07-13T13:25:45;5.88;;;2.22;;
44764;SDS011;30484;52.382;5.260;2023-07-13T13:28:16;4.82;;;1.60;;
44764;SDS011;30484;52.382;5.260;2023-07-13T13:30:48;5.78;;;2.10;;
44764;SDS011;30484;52.382;5.260;2023-07-13T13:33:19;7.22;;;2.45;;
44764;SDS011;30484;52.382;5.260;2023-07-13T13:35:49;7.60;;;2.35;;
44764;SDS011;30484;52.382;5.260;2023-07-13T13:38:19;5.80;;;1.95;;
44764;SDS011;30484;52.382;5.260;2023-07-13T13:40:52;6.20;;;2.13;;
44764;SDS011;30484;52.382;5.260;2023-07-13T13:43:23;5.75;;;1.95;;
44764;SDS011;30484;52.382;5.260;2023-07-13T13:45:55;7.38;;;1.98;;
44764;SDS011;30484;52.382;5.260;2023-07-13T13:48:30;6.28;;;1.80;;
44764;SDS011;30484;52.382;5.260;2023-07-13T13:51:01;6.95;;;2.10;;
44764;SDS011;30484;52.382;5.260;2023-07-13T13:53:40;7.53;;;2.15;;
44764;SDS011;30484;52.382;5.260;2023-07-13T13:56:09;7.90;;;2.42;;
44764;SDS011;30484;52.382;5.260;2023-07-13T13:58:39;5.60;;;1.88;;
44764;SDS011;30484;52.382;5.260;2023-07-13T14:01:13;8.50;;;2.00;;
44764;SDS011;30484;52.382;5.260;2023-07-13T14:03:45;5.95;;;1.63;;
44764;SDS011;30484;52.382;5.260;2023-07-13T14:06:15;6.20;;;2.08;;
44764;SDS011;30484;52.382;5.260;2023-07-13T14:08:44;5.50;;;2.15;;
44764;SDS011;30484;52.382;5.260;2023-07-13T14:11:14;9.05;;;2.30;;
44764;SDS011;30484;52.382;5.260;2023-07-13T14:13:47;3.92;;;1.70;;
44764;SDS011;30484;52.382;5.260;2023-07-13T14:16:19;7.65;;;2.30;;
44764;SDS011;30484;52.382;5.260;2023-07-13T14:18:49;9.30;;;2.45;;
44764;SDS011;30484;52.382;5.260;2023-07-13T14:21:22;15.50;;;2.58;;
44764;SDS011;30484;52.382;5.260;2023-07-13T14:23:51;5.30;;;1.92;;
44764;SDS011;30484;52.382;5.260;2023-07-13T14:26:20;9.18;;;2.20;;
44764;SDS011;30484;52.382;5.260;2023-07-13T14:28:51;7.07;;;2.17;;
44764;SDS011;30484;52.382;5.260;2023-07-13T14:31:23;5.82;;;2.08;;
44764;SDS011;30484;52.382;5.260;2023-07-13T14:33:56;6.60;;;2.17;;
44764;SDS011;30484;52.382;5.260;2023-07-13T14:36:27;7.65;;;2.10;;
44764;SDS011;30484;52.382;5.260;2023-07-13T14:38:59;7.05;;;2.10;;
44764;SDS011;30484;52.382;5.260;2023-07-13T14:41:39;8.77;;;1.90;;
44764;SDS011;30484;52.382;5.260;2023-07-13T14:44:13;8.60;;;2.20;;
44764;SDS011;30484;52.382;5.260;2023-07-13T14:46:45;4.75;;;1.67;;
44764;SDS011;30484;52.382;5.260;2023-07-13T14:49:23;6.78;;;2.17;;
44764;SDS011;30484;52.382;5.260;2023-07-13T14:51:54;5.13;;;2.03;;
44764;SDS011;30484;52.382;5.260;2023-07-13T14:54:24;5.10;;;1.92;;
44764;SDS011;30484;52.382;5.260;2023-07-13T14:56:53;6.30;;;2.00;;
44764;SDS011;30484;52.382;5.260;2023-07-13T14:59:22;6.22;;;1.92;;
44764;SDS011;30484;52.382;5.260;2023-07-13T15:01:54;5.50;;;1.85;;
44764;SDS011;30484;52.382;5.260;2023-07-13T15:04:23;7.53;;;2.10;;
44764;SDS011;30484;52.382;5.260;2023-07-13T15:06:55;5.10;;;1.83;;
44764;SDS011;30484;52.382;5.260;2023-07-13T15:09:26;5.47;;;2.00;;
44764;SDS011;30484;52.382;5.260;2023-07-13T15:11:58;3.30;;;1.73;;
44764;SDS011;30484;52.382;5.260;2023-07-13T15:14:26;5.05;;;2.13;;
44764;SDS011;30484;52.382;5.260;2023-07-13T15:16:59;2.90;;;1.60;;